sensor_id;sensor_type;location;lat;lon;timestamp;P1;durP1;ratioP1;P2;durP2;ratioP2
68234;SDS011;55052;52.056;5.296;2022-10-23T00:01:10;15.18;;;7.53;;
68234;SDS011;55052;52.056;5.296;2022-10-23T00:03:45;15.80;;;7.72;;
68234;SDS011;55052;52.056;5.296;2022-10-23T00:06:13;14.40;;;7.53;;
68234;SDS011;55052;52.056;5.296;2022-10-23T00:08:40;13.25;;;7.45;;
68234;SDS011;55052;52.056;5.296;2022-10-23T00:11:08;14.65;;;8.13;;
68234;SDS011;55052;52.056;5.296;2022-10-23T00:13:36;15.82;;;7.68;;
68234;SDS011;55052;52.056;5.296;2022-10-23T00:16:04;14.32;;;7.43;;
68234;SDS011;55052;52.056;5.296;2022-10-23T00:18:31;15.32;;;7.30;;
68234;SDS011;55052;52.056;5.296;2022-10-23T00:20:58;14.27;;;7.20;;
68234;SDS011;55052;52.056;5.296;2022-10-23T00:23:26;19.40;;;8.20;;
68234;SDS011;55052;52.056;5.296;2022-10-23T00:25:52;13.27;;;8.32;;
68234;SDS011;55052;52.056;5.296;2022-10-23T00:28:19;13.52;;;7.03;;
68234;SDS011;55052;52.056;5.296;2022-10-23T00:30:46;16.83;;;7.63;;
68234;SDS011;55052;52.056;5.296;2022-10-23T00:33:12;17.52;;;7.38;;
68234;SDS011;55052;52.056;5.296;2022-10-23T00:35:40;10.65;;;6.72;;
68234;SDS011;55052;52.056;5.296;2022-10-23T00:38:07;15.43;;;7.47;;
68234;SDS011;55052;52.056;5.296;2022-10-23T00:40:34;11.98;;;6.90;;
68234;SDS011;55052;52.056;5.296;2022-10-23T00:43:01;17.42;;;7.53;;
68234;SDS011;55052;52.056;5.296;2022-10-23T00:45:30;14.15;;;7.43;;
68234;SDS011;55052;52.056;5.296;2022-10-23T00:48:01;14.95;;;7.63;;
68234;SDS011;55052;52.056;5.296;2022-10-23T00:50:29;17.52;;;7.45;;
68234;SDS011;55052;52.056;5.296;2022-10-23T00:52:59;16.05;;;8.20;;
68234;SDS011;55052;52.056;5.296;2022-10-23T00:55:28;13.23;;;7.57;;
68234;SDS011;55052;52.056;5.296;2022-10-23T00:57:57;13.35;;;7.53;;
68234;SDS011;55052;52.056;5.296;2022-10-23T01:00:26;12.32;;;7.82;;
68234;SDS011;55052;52.056;5.296;2022-10-23T01:03:05;14.25;;;7.85;;
68234;SDS011;55052;52.056;5.296;2022-10-23T01:05:35;13.30;;;7.22;;
68234;SDS011;55052;52.056;5.296;2022-10-23T01:08:11;15.80;;;7.50;;
68234;SDS011;55052;52.056;5.296;2022-10-23T01:10:43;12.52;;;7.20;;
68234;SDS011;55052;52.056;5.296;2022-10-23T01:16:07;14.02;;;7.72;;
68234;SDS011;55052;52.056;5.296;2022-10-23T01:18:47;14.13;;;7.28;;
68234;SDS011;55052;52.056;5.296;2022-10-23T01:21:30;14.40;;;7.57;;
68234;SDS011;55052;52.056;5.296;2022-10-23T01:24:26;14.60;;;7.95;;
68234;SDS011;55052;52.056;5.296;2022-10-23T01:30:06;12.05;;;7.88;;
68234;SDS011;55052;52.056;5.296;2022-10-23T01:35:19;13.15;;;8.07;;
68234;SDS011;55052;52.056;5.296;2022-10-23T01:38:01;16.48;;;7.97;;
68234;SDS011;55052;52.056;5.296;2022-10-23T01:40:43;14.82;;;7.60;;
68234;SDS011;55052;52.056;5.296;2022-10-23T01:43:16;11.60;;;7.53;;
68234;SDS011;55052;52.056;5.296;2022-10-23T01:45:47;12.88;;;7.32;;
68234;SDS011;55052;52.056;5.296;2022-10-23T01:48:18;11.45;;;7.57;;
68234;SDS011;55052;52.056;5.296;2022-10-23T01:50:50;13.25;;;7.43;;
68234;SDS011;55052;52.056;5.296;2022-10-23T01:55:47;15.20;;;7.20;;
68234;SDS011;55052;52.056;5.296;2022-10-23T01:58:15;12.50;;;6.85;;
68234;SDS011;55052;52.056;5.296;2022-10-23T02:00:46;15.75;;;7.63;;
68234;SDS011;55052;52.056;5.296;2022-10-23T02:03:14;15.68;;;7.22;;
68234;SDS011;55052;52.056;5.296;2022-10-23T02:05:43;16.33;;;7.65;;
68234;SDS011;55052;52.056;5.296;2022-10-23T02:08:10;17.48;;;7.00;;
68234;SDS011;55052;52.056;5.296;2022-10-23T02:16:03;13.13;;;6.78;;
68234;SDS011;55052;52.056;5.296;2022-10-23T02:21:16;12.15;;;7.25;;
68234;SDS011;55052;52.056;5.296;2022-10-23T02:23:53;14.30;;;7.50;;
68234;SDS011;55052;52.056;5.296;2022-10-23T02:26:42;16.77;;;7.00;;
68234;SDS011;55052;52.056;5.296;2022-10-23T02:29:18;15.32;;;7.72;;
68234;SDS011;55052;52.056;5.296;2022-10-23T02:31:53;10.85;;;7.13;;
68234;SDS011;55052;52.056;5.296;2022-10-23T02:34:19;14.52;;;7.90;;
68234;SDS011;55052;52.056;5.296;2022-10-23T02:36:46;13.15;;;7.40;;
68234;SDS011;55052;52.056;5.296;2022-10-23T02:39:13;16.02;;;7.63;;
68234;SDS011;55052;52.056;5.296;2022-10-23T02:41:41;12.32;;;7.35;;
68234;SDS011;55052;52.056;5.296;2022-10-23T02:50:32;13.95;;;7.95;;
68234;SDS011;55052;52.056;5.296;2022-10-23T03:01:10;13.70;;;7.57;;
68234;SDS011;55052;52.056;5.296;2022-10-23T03:03:44;16.00;;;7.60;;
68234;SDS011;55052;52.056;5.296;2022-10-23T03:06:17;14.85;;;7.22;;
68234;SDS011;55052;52.056;5.296;2022-10-23T03:08:51;12.68;;;7.10;;
68234;SDS011;55052;52.056;5.296;2022-10-23T03:11:19;13.85;;;7.32;;
68234;SDS011;55052;52.056;5.296;2022-10-23T03:13:46;15.65;;;7.78;;
68234;SDS011;55052;52.056;5.296;2022-10-23T03:16:13;12.85;;;7.65;;
68234;SDS011;55052;52.056;5.296;2022-10-23T03:18:39;12.02;;;7.15;;
68234;SDS011;55052;52.056;5.296;2022-10-23T03:21:06;12.65;;;7.85;;
68234;SDS011;55052;52.056;5.296;2022-10-23T03:23:33;15.00;;;7.63;;
68234;SDS011;55052;52.056;5.296;2022-10-23T03:26:00;14.15;;;7.47;;
68234;SDS011;55052;52.056;5.296;2022-10-23T03:28:27;18.38;;;7.80;;
68234;SDS011;55052;52.056;5.296;2022-10-23T03:30:53;13.18;;;7.13;;
68234;SDS011;55052;52.056;5.296;2022-10-23T03:33:21;11.73;;;7.00;;
68234;SDS011;55052;52.056;5.296;2022-10-23T03:35:48;14.50;;;7.60;;
68234;SDS011;55052;52.056;5.296;2022-10-23T03:38:15;13.98;;;7.25;;
68234;SDS011;55052;52.056;5.296;2022-10-23T03:40:42;12.73;;;7.50;;
68234;SDS011;55052;52.056;5.296;2022-10-23T03:43:08;14.65;;;7.05;;
68234;SDS011;55052;52.056;5.296;2022-10-23T03:45:35;16.77;;;7.75;;
68234;SDS011;55052;52.056;5.296;2022-10-23T03:48:06;13.38;;;7.32;;
68234;SDS011;55052;52.056;5.296;2022-10-23T03:50:33;16.70;;;7.03;;
68234;SDS011;55052;52.056;5.296;2022-10-23T03:53:01;12.25;;;6.88;;
68234;SDS011;55052;52.056;5.296;2022-10-23T03:55:27;18.15;;;7.60;;
68234;SDS011;55052;52.056;5.296;2022-10-23T03:57:55;12.27;;;6.70;;
68234;SDS011;55052;52.056;5.296;2022-10-23T04:00:22;10.43;;;6.10;;
68234;SDS011;55052;52.056;5.296;2022-10-23T04:02:48;12.38;;;6.43;;
68234;SDS011;55052;52.056;5.296;2022-10-23T04:05:15;13.30;;;6.38;;
68234;SDS011;55052;52.056;5.296;2022-10-23T04:07:42;13.35;;;6.93;;
68234;SDS011;55052;52.056;5.296;2022-10-23T04:10:09;13.18;;;6.95;;
68234;SDS011;55052;52.056;5.296;2022-10-23T04:12:35;10.27;;;6.22;;
68234;SDS011;55052;52.056;5.296;2022-10-23T04:15:02;15.05;;;6.78;;
68234;SDS011;55052;52.056;5.296;2022-10-23T04:17:29;12.52;;;5.80;;
68234;SDS011;55052;52.056;5.296;2022-10-23T04:19:56;15.20;;;6.22;;
68234;SDS011;55052;52.056;5.296;2022-10-23T04:22:23;17.20;;;6.95;;
68234;SDS011;55052;52.056;5.296;2022-10-23T04:24:53;16.83;;;6.40;;
68234;SDS011;55052;52.056;5.296;2022-10-23T04:27:20;14.80;;;5.85;;
68234;SDS011;55052;52.056;5.296;2022-10-23T04:29:47;13.57;;;6.28;;
68234;SDS011;55052;52.056;5.296;2022-10-23T04:32:14;14.13;;;6.57;;
68234;SDS011;55052;52.056;5.296;2022-10-23T04:34:41;12.80;;;5.93;;
68234;SDS011;55052;52.056;5.296;2022-10-23T04:37:07;13.65;;;6.10;;
68234;SDS011;55052;52.056;5.296;2022-10-23T04:39:34;15.73;;;5.80;;
68234;SDS011;55052;52.056;5.296;2022-10-23T04:42:01;17.00;;;7.05;;
68234;SDS011;55052;52.056;5.296;2022-10-23T04:44:28;12.18;;;5.95;;
68234;SDS011;55052;52.056;5.296;2022-10-23T04:46:54;11.60;;;5.32;;
68234;SDS011;55052;52.056;5.296;2022-10-23T04:49:21;14.07;;;5.80;;
68234;SDS011;55052;52.056;5.296;2022-10-23T04:51:48;10.55;;;5.30;;
68234;SDS011;55052;52.056;5.296;2022-10-23T04:54:14;12.27;;;5.35;;
68234;SDS011;55052;52.056;5.296;2022-10-23T04:56:41;12.32;;;5.50;;
68234;SDS011;55052;52.056;5.296;2022-10-23T04:59:08;10.50;;;5.32;;
68234;SDS011;55052;52.056;5.296;2022-10-23T05:01:34;12.63;;;5.30;;
68234;SDS011;55052;52.056;5.296;2022-10-23T05:04:01;8.18;;;4.80;;
68234;SDS011;55052;52.056;5.296;2022-10-23T05:06:28;10.95;;;5.53;;
68234;SDS011;55052;52.056;5.296;2022-10-23T05:08:55;10.75;;;5.75;;
68234;SDS011;55052;52.056;5.296;2022-10-23T05:11:22;11.32;;;5.00;;
68234;SDS011;55052;52.056;5.296;2022-10-23T05:13:49;9.02;;;5.00;;
68234;SDS011;55052;52.056;5.296;2022-10-23T05:16:23;11.50;;;5.22;;
68234;SDS011;55052;52.056;5.296;2022-10-23T05:18:53;10.90;;;5.22;;
68234;SDS011;55052;52.056;5.296;2022-10-23T05:21:21;9.43;;;4.80;;
68234;SDS011;55052;52.056;5.296;2022-10-23T05:23:52;13.35;;;5.28;;
68234;SDS011;55052;52.056;5.296;2022-10-23T05:26:20;13.32;;;4.68;;
68234;SDS011;55052;52.056;5.296;2022-10-23T05:28:47;12.40;;;4.45;;
68234;SDS011;55052;52.056;5.296;2022-10-23T05:31:14;10.05;;;4.57;;
68234;SDS011;55052;52.056;5.296;2022-10-23T05:33:42;11.85;;;4.47;;
68234;SDS011;55052;52.056;5.296;2022-10-23T05:36:09;14.07;;;4.50;;
68234;SDS011;55052;52.056;5.296;2022-10-23T05:38:37;9.88;;;4.32;;
68234;SDS011;55052;52.056;5.296;2022-10-23T05:41:04;11.30;;;4.90;;
68234;SDS011;55052;52.056;5.296;2022-10-23T05:43:31;8.40;;;4.32;;
68234;SDS011;55052;52.056;5.296;2022-10-23T05:45:58;9.55;;;4.50;;
68234;SDS011;55052;52.056;5.296;2022-10-23T05:48:24;13.20;;;4.55;;
68234;SDS011;55052;52.056;5.296;2022-10-23T05:51:04;10.15;;;4.60;;
68234;SDS011;55052;52.056;5.296;2022-10-23T05:53:31;10.32;;;4.32;;
68234;SDS011;55052;52.056;5.296;2022-10-23T05:56:04;9.80;;;4.40;;
68234;SDS011;55052;52.056;5.296;2022-10-23T05:58:32;11.82;;;4.95;;
68234;SDS011;55052;52.056;5.296;2022-10-23T06:01:02;8.60;;;4.10;;
68234;SDS011;55052;52.056;5.296;2022-10-23T06:03:31;11.52;;;4.50;;
68234;SDS011;55052;52.056;5.296;2022-10-23T06:05:58;10.48;;;4.28;;
68234;SDS011;55052;52.056;5.296;2022-10-23T06:08:24;11.23;;;4.10;;
68234;SDS011;55052;52.056;5.296;2022-10-23T06:10:51;8.38;;;4.32;;
68234;SDS011;55052;52.056;5.296;2022-10-23T06:13:18;11.65;;;4.70;;
68234;SDS011;55052;52.056;5.296;2022-10-23T06:15:45;11.75;;;4.53;;
68234;SDS011;55052;52.056;5.296;2022-10-23T06:18:11;9.18;;;4.43;;
68234;SDS011;55052;52.056;5.296;2022-10-23T06:20:39;15.48;;;4.53;;
68234;SDS011;55052;52.056;5.296;2022-10-23T06:23:06;10.35;;;4.55;;
68234;SDS011;55052;52.056;5.296;2022-10-23T06:25:33;11.27;;;4.35;;
68234;SDS011;55052;52.056;5.296;2022-10-23T06:28:00;9.60;;;4.57;;
68234;SDS011;55052;52.056;5.296;2022-10-23T06:30:26;12.90;;;5.10;;
68234;SDS011;55052;52.056;5.296;2022-10-23T06:32:53;13.57;;;5.25;;
68234;SDS011;55052;52.056;5.296;2022-10-23T06:35:20;11.23;;;5.13;;
68234;SDS011;55052;52.056;5.296;2022-10-23T06:37:47;11.02;;;5.03;;
68234;SDS011;55052;52.056;5.296;2022-10-23T06:40:13;11.75;;;4.97;;
68234;SDS011;55052;52.056;5.296;2022-10-23T06:42:40;10.18;;;4.78;;
68234;SDS011;55052;52.056;5.296;2022-10-23T06:45:07;12.52;;;5.15;;
68234;SDS011;55052;52.056;5.296;2022-10-23T06:47:34;12.35;;;5.05;;
68234;SDS011;55052;52.056;5.296;2022-10-23T06:50:01;9.63;;;5.15;;
68234;SDS011;55052;52.056;5.296;2022-10-23T06:52:27;12.63;;;4.95;;
68234;SDS011;55052;52.056;5.296;2022-10-23T06:55:13;9.38;;;4.80;;
68234;SDS011;55052;52.056;5.296;2022-10-23T06:57:40;10.60;;;5.28;;
68234;SDS011;55052;52.056;5.296;2022-10-23T07:00:08;13.98;;;4.57;;
68234;SDS011;55052;52.056;5.296;2022-10-23T07:02:35;10.52;;;4.78;;
68234;SDS011;55052;52.056;5.296;2022-10-23T07:05:02;12.20;;;4.78;;
68234;SDS011;55052;52.056;5.296;2022-10-23T07:07:29;11.02;;;4.70;;
68234;SDS011;55052;52.056;5.296;2022-10-23T07:09:56;11.95;;;4.95;;
68234;SDS011;55052;52.056;5.296;2022-10-23T07:12:23;13.05;;;5.25;;
68234;SDS011;55052;52.056;5.296;2022-10-23T07:14:50;9.90;;;4.85;;
68234;SDS011;55052;52.056;5.296;2022-10-23T07:17:16;11.10;;;4.82;;
68234;SDS011;55052;52.056;5.296;2022-10-23T07:19:43;11.02;;;5.32;;
68234;SDS011;55052;52.056;5.296;2022-10-23T07:22:12;14.57;;;4.90;;
68234;SDS011;55052;52.056;5.296;2022-10-23T07:24:41;10.98;;;4.93;;
68234;SDS011;55052;52.056;5.296;2022-10-23T07:27:08;10.35;;;5.03;;
68234;SDS011;55052;52.056;5.296;2022-10-23T07:29:34;13.65;;;4.78;;
68234;SDS011;55052;52.056;5.296;2022-10-23T07:32:02;8.07;;;4.70;;
68234;SDS011;55052;52.056;5.296;2022-10-23T07:34:29;12.85;;;5.05;;
68234;SDS011;55052;52.056;5.296;2022-10-23T07:36:57;12.88;;;4.32;;
68234;SDS011;55052;52.056;5.296;2022-10-23T07:39:24;9.55;;;5.28;;
68234;SDS011;55052;52.056;5.296;2022-10-23T07:41:50;13.20;;;4.63;;
68234;SDS011;55052;52.056;5.296;2022-10-23T07:44:17;11.23;;;4.93;;
68234;SDS011;55052;52.056;5.296;2022-10-23T07:46:48;10.27;;;4.28;;
68234;SDS011;55052;52.056;5.296;2022-10-23T07:49:14;12.68;;;4.63;;
68234;SDS011;55052;52.056;5.296;2022-10-23T07:51:41;9.05;;;4.70;;
68234;SDS011;55052;52.056;5.296;2022-10-23T07:54:13;12.20;;;4.88;;
68234;SDS011;55052;52.056;5.296;2022-10-23T07:56:40;10.30;;;5.05;;
68234;SDS011;55052;52.056;5.296;2022-10-23T07:59:09;10.15;;;4.53;;
68234;SDS011;55052;52.056;5.296;2022-10-23T08:01:39;10.57;;;4.43;;
68234;SDS011;55052;52.056;5.296;2022-10-23T08:04:08;14.05;;;4.70;;
68234;SDS011;55052;52.056;5.296;2022-10-23T08:06:35;9.52;;;4.78;;
68234;SDS011;55052;52.056;5.296;2022-10-23T08:09:02;8.88;;;4.13;;
68234;SDS011;55052;52.056;5.296;2022-10-23T08:11:32;10.55;;;4.70;;
68234;SDS011;55052;52.056;5.296;2022-10-23T08:14:01;9.13;;;4.53;;
68234;SDS011;55052;52.056;5.296;2022-10-23T08:16:34;10.95;;;4.82;;
68234;SDS011;55052;52.056;5.296;2022-10-23T08:19:03;11.40;;;4.40;;
68234;SDS011;55052;52.056;5.296;2022-10-23T08:21:30;9.50;;;4.25;;
68234;SDS011;55052;52.056;5.296;2022-10-23T08:23:58;11.10;;;4.40;;
68234;SDS011;55052;52.056;5.296;2022-10-23T08:26:25;12.45;;;4.20;;
68234;SDS011;55052;52.056;5.296;2022-10-23T08:28:59;8.68;;;4.72;;
68234;SDS011;55052;52.056;5.296;2022-10-23T08:31:26;8.30;;;4.18;;
68234;SDS011;55052;52.056;5.296;2022-10-23T08:33:53;9.15;;;4.47;;
68234;SDS011;55052;52.056;5.296;2022-10-23T08:36:20;13.15;;;4.32;;
68234;SDS011;55052;52.056;5.296;2022-10-23T08:38:49;7.82;;;4.03;;
68234;SDS011;55052;52.056;5.296;2022-10-23T08:44:17;11.15;;;4.28;;
68234;SDS011;55052;52.056;5.296;2022-10-23T08:46:46;8.35;;;3.50;;
68234;SDS011;55052;52.056;5.296;2022-10-23T08:49:29;8.43;;;4.10;;
68234;SDS011;55052;52.056;5.296;2022-10-23T09:00:36;7.22;;;3.42;;
68234;SDS011;55052;52.056;5.296;2022-10-23T09:03:03;11.65;;;4.05;;
68234;SDS011;55052;52.056;5.296;2022-10-23T09:05:35;10.85;;;3.80;;
68234;SDS011;55052;52.056;5.296;2022-10-23T09:19:49;10.07;;;4.20;;
68234;SDS011;55052;52.056;5.296;2022-10-23T09:22:38;8.40;;;3.65;;
68234;SDS011;55052;52.056;5.296;2022-10-23T09:25:10;9.23;;;3.80;;
68234;SDS011;55052;52.056;5.296;2022-10-23T09:27:47;7.70;;;3.42;;
68234;SDS011;55052;52.056;5.296;2022-10-23T09:30:34;7.50;;;3.40;;
68234;SDS011;55052;52.056;5.296;2022-10-23T09:33:17;9.07;;;3.45;;
68234;SDS011;55052;52.056;5.296;2022-10-23T09:36:03;7.70;;;3.60;;
68234;SDS011;55052;52.056;5.296;2022-10-23T09:41:30;10.23;;;3.88;;
68234;SDS011;55052;52.056;5.296;2022-10-23T09:46:43;10.10;;;3.67;;
68234;SDS011;55052;52.056;5.296;2022-10-23T09:49:18;12.32;;;3.63;;
68234;SDS011;55052;52.056;5.296;2022-10-23T09:51:58;9.95;;;3.97;;
68234;SDS011;55052;52.056;5.296;2022-10-23T10:03:03;7.38;;;3.80;;
68234;SDS011;55052;52.056;5.296;2022-10-23T10:05:33;6.95;;;3.25;;
68234;SDS011;55052;52.056;5.296;2022-10-23T10:08:18;8.65;;;3.78;;
68234;SDS011;55052;52.056;5.296;2022-10-23T10:11:09;10.05;;;3.67;;
68234;SDS011;55052;52.056;5.296;2022-10-23T10:17:02;8.88;;;3.60;;
68234;SDS011;55052;52.056;5.296;2022-10-23T10:23:05;9.45;;;3.25;;
68234;SDS011;55052;52.056;5.296;2022-10-23T10:25:39;10.27;;;3.40;;
68234;SDS011;55052;52.056;5.296;2022-10-23T10:34:02;7.47;;;3.08;;
68234;SDS011;55052;52.056;5.296;2022-10-23T10:50:25;6.15;;;3.00;;
68234;SDS011;55052;52.056;5.296;2022-10-23T10:55:55;6.97;;;2.90;;
68234;SDS011;55052;52.056;5.296;2022-10-23T10:58:30;10.60;;;3.05;;
68234;SDS011;55052;52.056;5.296;2022-10-23T11:01:13;7.07;;;2.58;;
68234;SDS011;55052;52.056;5.296;2022-10-23T11:06:48;8.00;;;3.17;;
68234;SDS011;55052;52.056;5.296;2022-10-23T11:09:19;6.63;;;2.58;;
68234;SDS011;55052;52.056;5.296;2022-10-23T11:11:49;6.88;;;2.78;;
68234;SDS011;55052;52.056;5.296;2022-10-23T11:14:30;6.55;;;2.90;;
68234;SDS011;55052;52.056;5.296;2022-10-23T11:19:41;10.73;;;2.70;;
68234;SDS011;55052;52.056;5.296;2022-10-23T11:22:55;5.82;;;2.63;;
68234;SDS011;55052;52.056;5.296;2022-10-23T11:36:52;7.28;;;2.70;;
68234;SDS011;55052;52.056;5.296;2022-10-23T11:39:28;6.97;;;3.03;;
68234;SDS011;55052;52.056;5.296;2022-10-23T11:42:10;6.07;;;2.67;;
68234;SDS011;55052;52.056;5.296;2022-10-23T11:44:45;6.93;;;2.75;;
68234;SDS011;55052;52.056;5.296;2022-10-23T11:52:50;8.63;;;2.80;;
68234;SDS011;55052;52.056;5.296;2022-10-23T11:55:37;7.40;;;2.88;;
68234;SDS011;55052;52.056;5.296;2022-10-23T12:06:39;7.05;;;2.80;;
68234;SDS011;55052;52.056;5.296;2022-10-23T12:12:00;7.32;;;2.80;;
68234;SDS011;55052;52.056;5.296;2022-10-23T12:14:46;8.45;;;2.85;;
68234;SDS011;55052;52.056;5.296;2022-10-23T12:19:54;9.40;;;2.72;;
68234;SDS011;55052;52.056;5.296;2022-10-23T12:25:30;6.90;;;3.05;;
68234;SDS011;55052;52.056;5.296;2022-10-23T12:28:29;7.43;;;3.08;;
68234;SDS011;55052;52.056;5.296;2022-10-23T12:31:06;6.32;;;2.70;;
68234;SDS011;55052;52.056;5.296;2022-10-23T12:36:36;8.85;;;2.65;;
68234;SDS011;55052;52.056;5.296;2022-10-23T12:39:24;6.57;;;2.58;;
68234;SDS011;55052;52.056;5.296;2022-10-23T12:41:52;7.32;;;3.00;;
68234;SDS011;55052;52.056;5.296;2022-10-23T12:44:19;6.50;;;2.85;;
68234;SDS011;55052;52.056;5.296;2022-10-23T12:46:48;7.43;;;2.90;;
68234;SDS011;55052;52.056;5.296;2022-10-23T12:49:17;15.38;;;3.13;;
68234;SDS011;55052;52.056;5.296;2022-10-23T12:51:53;6.88;;;2.92;;
68234;SDS011;55052;52.056;5.296;2022-10-23T12:54:21;5.00;;;2.60;;
68234;SDS011;55052;52.056;5.296;2022-10-23T12:56:49;8.48;;;2.92;;
68234;SDS011;55052;52.056;5.296;2022-10-23T12:59:22;7.72;;;2.72;;
68234;SDS011;55052;52.056;5.296;2022-10-23T13:01:52;7.03;;;2.72;;
68234;SDS011;55052;52.056;5.296;2022-10-23T13:04:30;6.68;;;2.70;;
68234;SDS011;55052;52.056;5.296;2022-10-23T13:07:00;6.57;;;2.60;;
68234;SDS011;55052;52.056;5.296;2022-10-23T13:09:29;7.47;;;2.45;;
68234;SDS011;55052;52.056;5.296;2022-10-23T13:12:04;8.15;;;2.80;;
68234;SDS011;55052;52.056;5.296;2022-10-23T13:14:33;5.47;;;2.80;;
68234;SDS011;55052;52.056;5.296;2022-10-23T13:17:08;5.90;;;3.03;;
68234;SDS011;55052;52.056;5.296;2022-10-23T13:19:36;5.40;;;2.60;;
68234;SDS011;55052;52.056;5.296;2022-10-23T13:22:04;9.93;;;3.10;;
68234;SDS011;55052;52.056;5.296;2022-10-23T13:24:45;8.88;;;2.83;;
68234;SDS011;55052;52.056;5.296;2022-10-23T13:27:32;10.07;;;2.80;;
68234;SDS011;55052;52.056;5.296;2022-10-23T13:29:59;8.35;;;2.85;;
68234;SDS011;55052;52.056;5.296;2022-10-23T13:32:28;8.23;;;2.95;;
68234;SDS011;55052;52.056;5.296;2022-10-23T13:34:56;6.77;;;3.07;;
68234;SDS011;55052;52.056;5.296;2022-10-23T13:37:45;6.78;;;2.80;;
68234;SDS011;55052;52.056;5.296;2022-10-23T13:40:21;5.07;;;2.95;;
68234;SDS011;55052;52.056;5.296;2022-10-23T13:42:53;9.40;;;3.08;;
68234;SDS011;55052;52.056;5.296;2022-10-23T13:45:22;7.90;;;3.20;;
68234;SDS011;55052;52.056;5.296;2022-10-23T13:47:50;7.60;;;3.05;;
68234;SDS011;55052;52.056;5.296;2022-10-23T13:50:17;9.73;;;3.45;;
68234;SDS011;55052;52.056;5.296;2022-10-23T13:52:44;7.75;;;3.03;;
68234;SDS011;55052;52.056;5.296;2022-10-23T13:55:16;9.73;;;3.70;;
68234;SDS011;55052;52.056;5.296;2022-10-23T13:57:48;6.72;;;2.80;;
68234;SDS011;55052;52.056;5.296;2022-10-23T14:00:15;6.07;;;2.92;;
68234;SDS011;55052;52.056;5.296;2022-10-23T14:02:43;8.75;;;3.10;;
68234;SDS011;55052;52.056;5.296;2022-10-23T14:05:10;7.40;;;2.80;;
68234;SDS011;55052;52.056;5.296;2022-10-23T14:07:37;9.25;;;3.60;;
68234;SDS011;55052;52.056;5.296;2022-10-23T14:10:04;7.68;;;3.42;;
68234;SDS011;55052;52.056;5.296;2022-10-23T14:12:38;8.48;;;3.00;;
68234;SDS011;55052;52.056;5.296;2022-10-23T14:15:09;11.43;;;3.25;;
68234;SDS011;55052;52.056;5.296;2022-10-23T14:17:36;10.55;;;3.47;;
68234;SDS011;55052;52.056;5.296;2022-10-23T14:20:03;6.30;;;3.00;;
68234;SDS011;55052;52.056;5.296;2022-10-23T14:22:31;8.18;;;3.25;;
68234;SDS011;55052;52.056;5.296;2022-10-23T14:24:58;9.63;;;3.60;;
68234;SDS011;55052;52.056;5.296;2022-10-23T14:27:25;8.13;;;3.58;;
68234;SDS011;55052;52.056;5.296;2022-10-23T14:29:52;7.47;;;2.97;;
68234;SDS011;55052;52.056;5.296;2022-10-23T14:32:18;10.40;;;3.60;;
68234;SDS011;55052;52.056;5.296;2022-10-23T14:34:47;9.73;;;3.78;;
68234;SDS011;55052;52.056;5.296;2022-10-23T14:37:16;7.82;;;3.13;;
68234;SDS011;55052;52.056;5.296;2022-10-23T14:39:44;9.88;;;3.35;;
68234;SDS011;55052;52.056;5.296;2022-10-23T14:42:15;6.53;;;3.20;;
68234;SDS011;55052;52.056;5.296;2022-10-23T14:44:42;7.70;;;3.25;;
68234;SDS011;55052;52.056;5.296;2022-10-23T14:47:10;9.02;;;3.08;;
68234;SDS011;55052;52.056;5.296;2022-10-23T14:49:36;6.32;;;3.00;;
68234;SDS011;55052;52.056;5.296;2022-10-23T14:52:05;7.00;;;3.10;;
68234;SDS011;55052;52.056;5.296;2022-10-23T14:54:32;9.65;;;3.13;;
68234;SDS011;55052;52.056;5.296;2022-10-23T14:57:01;7.47;;;3.40;;
68234;SDS011;55052;52.056;5.296;2022-10-23T14:59:28;8.85;;;3.38;;
68234;SDS011;55052;52.056;5.296;2022-10-23T15:01:55;9.57;;;3.20;;
68234;SDS011;55052;52.056;5.296;2022-10-23T15:04:22;8.55;;;3.08;;
68234;SDS011;55052;52.056;5.296;2022-10-23T15:06:49;9.18;;;3.08;;
68234;SDS011;55052;52.056;5.296;2022-10-23T15:09:16;9.98;;;3.33;;
68234;SDS011;55052;52.056;5.296;2022-10-23T15:11:45;7.75;;;3.00;;
68234;SDS011;55052;52.056;5.296;2022-10-23T15:14:12;6.65;;;3.20;;
68234;SDS011;55052;52.056;5.296;2022-10-23T15:16:39;7.30;;;3.20;;
68234;SDS011;55052;52.056;5.296;2022-10-23T15:19:10;9.45;;;3.10;;
68234;SDS011;55052;52.056;5.296;2022-10-23T15:21:43;7.72;;;2.60;;
68234;SDS011;55052;52.056;5.296;2022-10-23T15:24:11;11.32;;;3.13;;
68234;SDS011;55052;52.056;5.296;2022-10-23T15:26:38;9.85;;;3.10;;
68234;SDS011;55052;52.056;5.296;2022-10-23T15:29:07;10.27;;;3.22;;
68234;SDS011;55052;52.056;5.296;2022-10-23T15:34:03;7.82;;;3.10;;
68234;SDS011;55052;52.056;5.296;2022-10-23T15:36:31;9.95;;;3.20;;
68234;SDS011;55052;52.056;5.296;2022-10-23T15:38:58;7.97;;;3.22;;
68234;SDS011;55052;52.056;5.296;2022-10-23T15:41:29;8.07;;;3.15;;
68234;SDS011;55052;52.056;5.296;2022-10-23T15:43:57;10.27;;;3.35;;
68234;SDS011;55052;52.056;5.296;2022-10-23T15:46:25;6.38;;;3.25;;
68234;SDS011;55052;52.056;5.296;2022-10-23T15:48:52;7.15;;;3.20;;
68234;SDS011;55052;52.056;5.296;2022-10-23T15:51:19;9.00;;;3.03;;
68234;SDS011;55052;52.056;5.296;2022-10-23T15:53:46;9.38;;;3.45;;
68234;SDS011;55052;52.056;5.296;2022-10-23T15:56:12;9.48;;;3.33;;
68234;SDS011;55052;52.056;5.296;2022-10-23T15:58:39;10.93;;;3.28;;
68234;SDS011;55052;52.056;5.296;2022-10-23T16:01:06;6.60;;;3.08;;
68234;SDS011;55052;52.056;5.296;2022-10-23T16:03:34;9.40;;;3.13;;
68234;SDS011;55052;52.056;5.296;2022-10-23T16:06:07;6.47;;;3.07;;
68234;SDS011;55052;52.056;5.296;2022-10-23T16:08:35;11.27;;;4.05;;
68234;SDS011;55052;52.056;5.296;2022-10-23T16:11:03;16.40;;;3.88;;
68234;SDS011;55052;52.056;5.296;2022-10-23T16:13:37;10.65;;;3.08;;
68234;SDS011;55052;52.056;5.296;2022-10-23T16:16:03;6.80;;;3.00;;
68234;SDS011;55052;52.056;5.296;2022-10-23T16:18:30;5.65;;;2.80;;
68234;SDS011;55052;52.056;5.296;2022-10-23T16:20:57;8.20;;;2.85;;
68234;SDS011;55052;52.056;5.296;2022-10-23T16:23:24;8.25;;;3.38;;
68234;SDS011;55052;52.056;5.296;2022-10-23T16:25:53;7.75;;;3.13;;
68234;SDS011;55052;52.056;5.296;2022-10-23T16:28:20;8.32;;;3.53;;
68234;SDS011;55052;52.056;5.296;2022-10-23T16:30:47;6.82;;;3.00;;
68234;SDS011;55052;52.056;5.296;2022-10-23T16:33:13;11.13;;;3.30;;
68234;SDS011;55052;52.056;5.296;2022-10-23T16:35:40;9.25;;;3.20;;
68234;SDS011;55052;52.056;5.296;2022-10-23T16:38:07;6.18;;;3.13;;
68234;SDS011;55052;52.056;5.296;2022-10-23T16:40:34;10.32;;;3.25;;
68234;SDS011;55052;52.056;5.296;2022-10-23T16:43:00;11.68;;;3.80;;
68234;SDS011;55052;52.056;5.296;2022-10-23T16:45:27;6.97;;;3.55;;
68234;SDS011;55052;52.056;5.296;2022-10-23T16:47:54;9.70;;;3.30;;
68234;SDS011;55052;52.056;5.296;2022-10-23T16:50:21;10.10;;;3.33;;
68234;SDS011;55052;52.056;5.296;2022-10-23T16:52:48;12.65;;;3.50;;
68234;SDS011;55052;52.056;5.296;2022-10-23T16:55:20;8.48;;;3.47;;
68234;SDS011;55052;52.056;5.296;2022-10-23T16:57:47;10.57;;;3.72;;
68234;SDS011;55052;52.056;5.296;2022-10-23T17:00:13;8.02;;;3.38;;
68234;SDS011;55052;52.056;5.296;2022-10-23T17:02:40;6.85;;;3.38;;
68234;SDS011;55052;52.056;5.296;2022-10-23T17:05:08;8.80;;;3.65;;
68234;SDS011;55052;52.056;5.296;2022-10-23T17:07:34;7.93;;;3.50;;
68234;SDS011;55052;52.056;5.296;2022-10-23T17:10:02;9.77;;;3.25;;
68234;SDS011;55052;52.056;5.296;2022-10-23T17:12:29;7.30;;;3.38;;
68234;SDS011;55052;52.056;5.296;2022-10-23T17:14:56;6.88;;;3.03;;
68234;SDS011;55052;52.056;5.296;2022-10-23T17:17:23;14.98;;;3.53;;
68234;SDS011;55052;52.056;5.296;2022-10-23T17:19:51;7.72;;;3.70;;
68234;SDS011;55052;52.056;5.296;2022-10-23T17:22:18;10.70;;;3.33;;